Time;durP1;ratioP1;P1;durP2;ratioP2;P2;SDS_P1;SDS_P2;PMS_P1;PMS_P2;Temp;Humidity;BMP_temperature;BMP_pressure;BME280_temperature;BME280_humidity;BME280_pressure;Samples;Min_cycle;Max_cycle;Signal;HPM_P1;HPM_P2
2023/03/31 00:00:03;;;;;;;6.00;2.63;;;11.30;99.90;;;;;;2614647;54;20368;-76
2023/03/31 00:05:59;;;;;;;7.20;3.40;;;11.20;99.90;;;;;;2613511;54;20421;-77
2023/03/31 00:11:51;;;;;;;12.23;3.43;;;11.20;99.90;;;;;;2613438;54;20463;-76
2023/03/31 00:17:38;;;;;;;7.93;3.10;;;11.00;99.90;;;;;;2611173;54;20459;-76
2023/03/31 00:23:26;;;;;;;5.03;2.90;;;11.10;99.90;;;;;;2610859;54;20126;-76
2023/03/31 00:29:14;;;;;;;6.53;2.90;;;11.10;99.90;;;;;;2611112;54;20406;-77
2023/03/31 00:35:03;;;;;;;6.27;3.37;;;11.20;99.90;;;;;;2609377;54;21028;-76
2023/03/31 00:40:50;;;;;;;7.87;3.50;;;11.20;99.90;;;;;;2610882;54;20411;-76
2023/03/31 00:53:06;;;;;;;11.03;3.33;;;11.30;99.90;;;;;;2610745;54;20390;-77
2023/03/31 01:02:16;;;;;;;4.90;2.50;;;11.50;99.90;;;;;;2609858;54;20539;-77
2023/03/31 01:08:05;;;;;;;3.80;2.27;;;11.30;99.90;;;;;;2611703;39;20831;-75
2023/03/31 01:13:55;;;;;;;5.67;2.33;;;11.50;99.90;;;;;;2611918;54;20364;-76
2023/03/31 01:30:15;;;;;;;3.33;1.80;;;11.20;99.90;;;;;;2610454;46;20460;-76
2023/03/31 01:32:50;;;;;;;4.07;1.73;;;11.10;99.90;;;;;;2609444;54;20974;-74
2023/03/31 01:52:06;;;;;;;6.40;2.03;;;10.90;99.90;;;;;;2608516;54;22947;-78
2023/03/31 02:02:08;;;;;;;8.23;3.07;;;10.70;99.90;;;;;;2610739;54;21085;-75
2023/03/31 02:08:01;;;;;;;6.70;2.40;;;10.80;99.90;;;;;;2609486;54;20439;-75
2023/03/31 02:13:54;;;;;;;5.70;2.13;;;10.80;99.90;;;;;;2609968;54;20479;-75
2023/03/31 02:19:44;;;;;;;3.93;2.10;;;10.80;99.90;;;;;;2612819;54;20945;-75
2023/03/31 02:25:37;;;;;;;6.63;2.50;;;10.80;99.90;;;;;;2611261;54;20374;-75
2023/03/31 02:31:48;;;;;;;10.03;3.50;;;10.70;99.90;;;;;;2613052;54;20415;-75
2023/03/31 02:37:38;;;;;;;7.27;3.00;;;10.70;99.90;;;;;;2611377;54;20411;-74
2023/03/31 02:43:25;;;;;;;9.20;3.73;;;10.70;99.90;;;;;;2611363;54;20399;-74
2023/03/31 02:49:15;;;;;;;9.50;2.80;;;10.80;99.90;;;;;;2611094;54;20771;-74
2023/03/31 02:59:36;;;;;;;7.23;3.27;;;10.80;99.90;;;;;;2609184;54;21060;-72
2023/03/31 03:05:57;;;;;;;4.33;2.40;;;10.80;99.90;;;;;;2609118;54;20394;-74
2023/03/31 03:11:52;;;;;;;13.13;4.67;;;10.70;99.90;;;;;;2609741;54;20479;-74
2023/03/31 03:17:46;;;;;;;10.40;3.73;;;10.70;99.90;;;;;;2609637;54;20503;-74
2023/03/31 03:23:33;;;;;;;13.87;3.57;;;10.60;99.90;;;;;;2609353;54;20382;-74
2023/03/31 03:32:42;;;;;;;14.20;4.40;;;10.60;99.90;;;;;;2611407;54;20467;-74
2023/03/31 03:38:30;;;;;;;18.50;4.27;;;10.50;99.90;;;;;;2611622;54;20118;-74
2023/03/31 03:44:17;;;;;;;17.33;4.40;;;10.50;99.90;;;;;;2611290;54;20126;-74
2023/03/31 03:50:06;;;;;;;13.37;4.27;;;10.50;99.90;;;;;;2611439;54;20165;-74
2023/03/31 03:55:55;;;;;;;6.67;3.30;;;10.50;99.90;;;;;;2611723;39;20711;-75
2023/03/31 04:02:20;;;;;;;14.87;4.17;;;10.50;99.90;;;;;;2609922;46;20217;-76
2023/03/31 04:05:10;;;;;;;10.43;4.50;;;10.40;99.90;;;;;;2610868;54;21400;-75
2023/03/31 04:10:57;;;;;;;11.20;3.57;;;10.50;99.90;;;;;;2611583;54;20396;-75
2023/03/31 04:16:45;;;;;;;10.83;3.37;;;10.50;99.90;;;;;;2610761;54;20130;-74
2023/03/31 04:22:39;;;;;;;10.87;3.47;;;10.50;99.90;;;;;;2612365;54;20150;-74
2023/03/31 04:28:33;;;;;;;6.37;3.80;;;10.30;99.90;;;;;;2614536;54;20524;-75
2023/03/31 04:34:25;;;;;;;12.10;3.73;;;10.40;99.90;;;;;;2614392;54;20471;-74
2023/03/31 04:40:13;;;;;;;11.03;5.33;;;10.30;99.90;;;;;;2610471;54;20969;-74
2023/03/31 04:46:01;;;;;;;13.50;3.50;;;10.40;99.90;;;;;;2610476;54;20515;-74
2023/03/31 04:51:49;;;;;;;6.87;3.30;;;10.40;99.90;;;;;;2609649;54;20158;-73
2023/03/31 04:57:37;;;;;;;7.40;3.03;;;10.50;99.90;;;;;;2611640;54;20366;-73
2023/03/31 05:00:38;;;;;;;9.67;3.03;;;10.50;99.90;;;;;;2610153;54;20399;-74
2023/03/31 05:03:04;;;;;;;9.60;2.00;;;10.40;99.90;;;;;;2609791;54;20172;-75
2023/03/31 05:08:51;;;;;;;7.27;2.70;;;10.30;99.90;;;;;;2610971;54;20130;-74
2023/03/31 05:14:39;;;;;;;10.53;3.33;;;10.30;99.90;;;;;;2610181;54;20170;-73
2023/03/31 05:20:26;;;;;;;10.67;2.57;;;10.20;99.90;;;;;;2612209;54;20138;-76
2023/03/31 05:26:15;;;;;;;7.10;2.53;;;10.10;99.90;;;;;;2610299;54;20147;-74
2023/03/31 05:32:03;;;;;;;8.23;2.17;;;10.10;99.90;;;;;;2612215;54;20392;-75
2023/03/31 05:37:50;;;;;;;7.00;2.93;;;10.10;99.90;;;;;;2612554;54;20159;-74
2023/03/31 05:43:38;;;;;;;4.87;2.33;;;10.10;99.90;;;;;;2609483;54;20172;-74
2023/03/31 05:49:26;;;;;;;8.90;2.63;;;10.10;99.90;;;;;;2609672;54;20698;-75
2023/03/31 05:55:14;;;;;;;4.53;2.93;;;10.20;99.90;;;;;;2611441;54;20123;-73
2023/03/31 06:05:10;;;;;;;4.30;2.40;;;10.20;99.90;;;;;;2610565;54;20355;-73
2023/03/31 06:10:58;;;;;;;4.60;3.17;;;10.30;99.90;;;;;;2609021;54;20391;-75
2023/03/31 06:16:47;;;;;;;6.03;2.47;;;10.40;99.90;;;;;;2611933;54;20972;-74
2023/03/31 06:22:34;;;;;;;5.13;2.47;;;10.40;99.90;;;;;;2612465;54;20528;-74
2023/03/31 06:28:22;;;;;;;8.30;2.63;;;10.50;99.90;;;;;;2613126;39;20294;-73
2023/03/31 06:34:11;;;;;;;4.00;2.07;;;10.30;99.90;;;;;;2611437;39;20513;-74
2023/03/31 06:39:58;;;;;;;5.57;2.63;;;10.10;99.90;;;;;;2612449;39;20498;-74
2023/03/31 06:45:46;;;;;;;3.80;2.30;;;10.00;99.90;;;;;;2612880;54;20282;-74
2023/03/31 06:51:34;;;;;;;5.30;2.70;;;10.00;99.90;;;;;;2612101;54;20422;-75
2023/03/31 06:57:22;;;;;;;3.63;1.80;;;9.90;99.90;;;;;;2612693;54;20178;-74
2023/03/31 07:00:38;;;;;;;6.17;2.10;;;9.90;99.90;;;;;;2610863;54;20431;-73
2023/03/31 07:03:05;;;;;;;7.80;2.87;;;9.90;99.90;;;;;;2609922;54;20238;-73
2023/03/31 07:08:53;;;;;;;4.33;1.90;;;9.80;99.90;;;;;;2612872;54;20387;-73
2023/03/31 07:14:41;;;;;;;5.00;2.23;;;9.80;99.90;;;;;;2612983;54;20649;-74
2023/03/31 07:17:44;;;;;;;8.80;2.40;;;9.70;99.90;;;;;;2613171;54;20380;-73
2023/03/31 07:20:13;;;;;;;3.10;1.90;;;9.70;99.90;;;;;;2613101;47;20170;-73
2023/03/31 07:26:01;;;;;;;3.33;2.00;;;9.80;99.90;;;;;;2615219;39;20759;-73
2023/03/31 07:31:49;;;;;;;5.37;2.73;;;9.70;99.90;;;;;;2610940;54;20137;-74
2023/03/31 07:37:43;;;;;;;3.90;2.30;;;9.70;99.90;;;;;;2611267;54;20395;-73
2023/03/31 07:43:30;;;;;;;3.20;2.20;;;9.80;99.90;;;;;;2614493;54;20921;-74
2023/03/31 07:49:18;;;;;;;6.93;2.00;;;9.80;99.90;;;;;;2615108;39;20543;-74
2023/03/31 07:55:07;;;;;;;2.17;1.30;;;9.90;99.90;;;;;;2612214;54;20122;-73
2023/03/31 08:05:10;;;;;;;3.60;1.97;;;9.80;99.90;;;;;;2611856;54;20977;-74
2023/03/31 08:08:23;;;;;;;4.03;2.70;;;9.90;99.90;;;;;;2612315;54;20952;-73
2023/03/31 08:10:49;;;;;;;4.70;3.90;;;9.90;99.90;;;;;;2613056;54;20478;-73
2023/03/31 08:16:37;;;;;;;7.53;3.80;;;10.20;99.90;;;;;;2613590;54;20134;-73
2023/03/31 08:22:25;;;;;;;4.87;1.90;;;10.20;99.90;;;;;;2612874;39;20645;-72
2023/03/31 08:28:13;;;;;;;7.67;1.90;;;10.00;99.90;;;;;;2614007;54;20157;-73
2023/03/31 08:34:01;;;;;;;9.47;2.33;;;9.80;99.90;;;;;;2613156;54;20222;-72
2023/03/31 08:39:49;;;;;;;3.30;2.70;;;9.80;99.90;;;;;;2614166;54;20929;-72
2023/03/31 08:45:41;;;;;;;7.10;2.50;;;9.70;99.90;;;;;;2612585;54;20164;-73
2023/03/31 09:21:34;;;;;;;7.20;2.80;;;10.70;99.90;;;;;;2611887;54;20447;-72
2023/03/31 09:27:26;;;;;;;4.30;1.93;;;10.80;99.90;;;;;;2608044;54;20383;-73
2023/03/31 09:39:42;;;;;;;6.93;2.50;;;11.10;99.90;;;;;;2609474;54;20971;-73
2023/03/31 09:45:32;;;;;;;6.50;2.93;;;11.20;99.90;;;;;;2607892;54;20156;-72
2023/03/31 09:51:26;;;;;;;7.83;2.77;;;11.20;99.90;;;;;;2611296;54;20395;-73
2023/03/31 10:03:52;;;;;;;3.50;2.07;;;11.30;99.90;;;;;;2613903;54;20390;-73
2023/03/31 10:07:11;;;;;;;4.37;2.60;;;11.40;99.90;;;;;;2613500;54;20479;-72
2023/03/31 10:09:37;;;;;;;6.97;3.03;;;11.40;99.90;;;;;;2612870;54;20514;-73
2023/03/31 10:15:27;;;;;;;15.10;5.77;;;11.70;99.90;;;;;;2613921;39;20755;-73
2023/03/31 10:27:31;;;;;;;10.50;3.23;;;12.50;99.90;;;;;;2612550;54;26015;-74
2023/03/31 10:33:26;;;;;;;7.60;2.90;;;12.70;99.90;;;;;;2611099;39;20773;-72
2023/03/31 10:39:16;;;;;;;3.40;1.70;;;11.80;99.90;;;;;;2614654;39;20782;-73
2023/03/31 10:45:11;;;;;;;7.00;1.83;;;10.20;99.90;;;;;;2614019;54;20379;-74
2023/03/31 10:51:04;;;;;;;9.17;1.97;;;10.70;99.90;;;;;;2614696;39;20806;-73
2023/03/31 10:57:00;;;;;;;8.50;2.40;;;11.20;99.90;;;;;;2613968;39;20556;-74
2023/03/31 11:28:51;;;;;;;7.00;2.60;;;12.00;99.90;;;;;;2614129;54;20368;-73
2023/03/31 11:34:57;;;;;;;2.80;1.57;;;12.40;99.90;;;;;;2614116;54;20275;-74
2023/03/31 11:47:20;;;;;;;5.20;1.67;;;12.60;99.90;;;;;;2614243;54;20551;-74
2023/03/31 11:59:31;;;;;;;4.83;2.13;;;14.00;99.90;;;;;;2613390;39;20855;-74
2023/03/31 12:05:21;;;;;;;7.50;2.40;;;14.20;99.90;;;;;;2614115;54;20363;-75
2023/03/31 12:17:26;;;;;;;6.70;2.43;;;13.60;99.90;;;;;;2614012;54;21397;-74
2023/03/31 12:23:16;;;;;;;7.87;2.90;;;13.80;99.90;;;;;;2613685;54;20415;-74
2023/03/31 12:42:11;;;;;;;2.50;1.93;;;13.40;99.90;;;;;;2614111;54;20379;-75
2023/03/31 12:48:01;;;;;;;14.40;3.30;;;12.50;99.90;;;;;;2613361;54;20407;-73
2023/03/31 13:00:28;;;;;;;9.73;2.80;;;12.40;99.90;;;;;;2614629;54;20416;-74
2023/03/31 13:06:28;;;;;;;13.40;3.23;;;12.80;99.90;;;;;;2611983;54;20972;-74
2023/03/31 13:15:38;;;;;;;6.77;3.27;;;13.90;99.90;;;;;;2613031;54;20431;-75
2023/03/31 13:18:43;;;;;;;14.23;3.10;;;14.30;99.90;;;;;;2613687;54;20491;-75
2023/03/31 13:21:11;;;;;;;9.90;3.70;;;14.90;99.90;;;;;;2614237;54;20210;-74
2023/03/31 13:33:58;;;;;;;9.00;3.33;;;14.00;99.90;;;;;;2614494;54;20399;-74
2023/03/31 13:53:00;;;;;;;9.63;4.80;;;14.50;99.90;;;;;;2611979;54;20374;-75
2023/03/31 14:19:33;;;;;;;5.90;3.80;;;14.50;96.00;;;;;;2605566;54;20386;-76
2023/03/31 14:25:21;;;;;;;5.03;3.40;;;14.70;86.50;;;;;;2612306;54;20417;-76
2023/03/31 14:37:33;;;;;;;4.30;3.60;;;14.70;64.20;;;;;;2612461;54;20394;-76
2023/03/31 14:43:28;;;;;;;5.63;3.67;;;14.70;61.20;;;;;;2609786;54;20394;-76
2023/03/31 14:49:25;;;;;;;7.33;4.07;;;14.70;60.80;;;;;;2612764;47;20952;-77
2023/03/31 14:55:16;;;;;;;6.50;4.50;;;14.60;54.90;;;;;;2610925;54;20387;-76
2023/03/31 15:01:07;;;;;;;6.03;4.10;;;14.40;56.60;;;;;;2612425;39;20774;-76
2023/03/31 15:06:58;;;;;;;5.30;4.90;;;14.20;49.90;;;;;;2611141;39;20919;-76
2023/03/31 15:16:36;;;;;;;7.10;2.70;;;12.60;99.90;;;;;;2610147;39;20835;-74
2023/03/31 15:22:28;;;;;;;6.73;2.80;;;12.30;99.90;;;;;;2610527;54;20402;-73
2023/03/31 15:28:17;;;;;;;5.70;2.67;;;12.20;99.90;;;;;;2614383;54;20367;-74
2023/03/31 15:53:46;;;;;;;3.73;2.60;;;12.20;99.90;;;;;;2608442;54;20411;-74
2023/03/31 15:59:54;;;;;;;15.87;2.77;;;12.40;99.90;;;;;;2609488;54;20956;-74
2023/03/31 16:16:07;;;;;;;12.23;2.20;;;12.50;99.90;;;;;;2609301;54;20446;-76
2023/03/31 16:22:00;;;;;;;6.00;1.57;;;12.40;99.90;;;;;;2611318;54;20375;-74
2023/03/31 16:27:53;;;;;;;3.30;1.83;;;12.40;99.90;;;;;;2610478;54;20946;-75
2023/03/31 16:33:55;;;;;;;3.60;2.20;;;12.40;99.90;;;;;;2609630;54;20430;-75
2023/03/31 16:39:43;;;;;;;3.00;1.90;;;12.30;99.90;;;;;;2610258;54;20415;-75
2023/03/31 16:45:31;;;;;;;3.30;1.47;;;12.20;99.90;;;;;;2609286;54;20150;-73
2023/03/31 16:51:19;;;;;;;2.90;1.13;;;12.10;99.90;;;;;;2609819;54;20138;-75
2023/03/31 16:57:07;;;;;;;6.83;3.80;;;12.10;99.90;;;;;;2611490;54;20415;-75
2023/03/31 17:02:56;;;;;;;3.23;1.83;;;11.90;99.90;;;;;;2609486;54;20751;-74
2023/03/31 17:08:44;;;;;;;5.23;1.50;;;11.70;99.90;;;;;;2609532;54;20925;-74
2023/03/31 17:11:29;;;;;;;2.80;1.27;;;11.60;99.90;;;;;;2609804;54;20408;-75
2023/03/31 17:13:55;;;;;;;6.33;1.60;;;11.50;99.90;;;;;;2608521;54;20166;-75
2023/03/31 17:19:43;;;;;;;8.83;1.70;;;11.40;99.90;;;;;;2607940;54;20399;-75
2023/03/31 17:25:31;;;;;;;5.67;2.60;;;11.20;99.90;;;;;;2611984;54;20158;-74
2023/03/31 17:31:20;;;;;;;6.30;2.73;;;11.00;99.90;;;;;;2613138;54;20492;-74
2023/03/31 17:37:08;;;;;;;5.10;1.93;;;10.90;99.90;;;;;;2611163;54;20391;-74
2023/03/31 17:42:56;;;;;;;4.93;2.40;;;10.90;99.90;;;;;;2610753;54;20391;-73
2023/03/31 17:48:44;;;;;;;4.00;1.80;;;10.80;99.90;;;;;;2607108;54;20246;-73
2023/03/31 17:54:32;;;;;;;8.47;2.60;;;10.70;99.90;;;;;;2605609;54;20135;-74
2023/03/31 18:00:20;;;;;;;6.67;2.47;;;10.60;99.90;;;;;;2611429;54;20146;-73
2023/03/31 18:06:10;;;;;;;26.43;12.53;;;10.70;99.90;;;;;;2608495;54;20233;-73
2023/03/31 18:16:04;;;;;;;4.50;2.20;;;10.40;99.90;;;;;;2610260;54;20349;-73
2023/03/31 18:21:52;;;;;;;5.70;1.70;;;10.50;99.90;;;;;;2610525;54;20378;-73
2023/03/31 18:27:39;;;;;;;10.67;4.33;;;10.50;99.90;;;;;;2612384;54;20150;-74
2023/03/31 18:33:27;;;;;;;4.50;1.87;;;10.50;99.90;;;;;;2611832;54;20130;-75
2023/03/31 18:39:15;;;;;;;7.03;2.20;;;10.50;99.90;;;;;;2611420;39;20688;-73
2023/03/31 18:45:03;;;;;;;4.97;1.93;;;10.50;99.90;;;;;;2610036;39;20807;-74
2023/03/31 18:50:52;;;;;;;6.47;2.10;;;10.50;99.90;;;;;;2613612;54;20367;-74
2023/03/31 18:56:40;;;;;;;3.30;1.30;;;10.60;99.90;;;;;;2612392;54;20367;-74
2023/03/31 19:02:28;;;;;;;9.03;1.73;;;10.50;99.90;;;;;;2613733;54;20399;-74
2023/03/31 19:08:16;;;;;;;4.33;2.27;;;10.60;99.90;;;;;;2612973;54;20223;-75
2023/03/31 19:11:35;;;;;;;4.53;1.90;;;10.70;99.90;;;;;;2611931;54;21084;-74
2023/03/31 19:14:00;;;;;;;8.13;1.57;;;10.70;99.90;;;;;;2612660;54;20724;-74
2023/03/31 19:19:49;;;;;;;3.40;1.37;;;10.70;99.90;;;;;;2607232;54;20123;-75
2023/03/31 19:25:36;;;;;;;2.27;1.30;;;10.80;99.90;;;;;;2610703;54;20362;-73
2023/03/31 19:31:24;;;;;;;3.87;1.83;;;10.70;99.90;;;;;;2608197;39;20296;-74
2023/03/31 19:37:12;;;;;;;5.40;2.87;;;10.60;99.90;;;;;;2605971;54;20127;-74
2023/03/31 19:43:00;;;;;;;4.60;1.90;;;10.30;99.90;;;;;;2607428;39;20226;-74
2023/03/31 19:48:47;;;;;;;4.87;2.23;;;10.10;99.90;;;;;;2610809;54;20155;-73
2023/03/31 19:54:35;;;;;;;2.90;1.73;;;10.00;99.90;;;;;;2610081;54;20150;-74
2023/03/31 20:00:25;;;;;;;3.57;1.30;;;10.00;99.90;;;;;;2611886;54;20166;-74
2023/03/31 20:06:13;;;;;;;4.50;2.00;;;10.00;99.90;;;;;;2611299;54;20434;-74
2023/03/31 20:16:04;;;;;;;4.70;2.10;;;10.00;99.90;;;;;;2613891;54;20378;-74
2023/03/31 20:21:56;;;;;;;5.40;2.23;;;9.90;99.90;;;;;;2612397;54;20438;-75
2023/03/31 20:27:44;;;;;;;6.63;2.10;;;9.90;99.90;;;;;;2613065;54;20960;-73
2023/03/31 20:33:32;;;;;;;3.63;1.67;;;9.90;99.90;;;;;;2611926;54;20126;-73
2023/03/31 20:39:20;;;;;;;7.17;1.90;;;10.10;99.90;;;;;;2609835;39;20271;-74
2023/03/31 20:45:08;;;;;;;7.53;1.70;;;10.10;99.90;;;;;;2613499;39;20782;-74
2023/03/31 20:50:56;;;;;;;3.93;1.17;;;10.00;99.90;;;;;;2611700;54;20368;-73
2023/03/31 20:56:44;;;;;;;4.03;1.23;;;10.10;99.90;;;;;;2612966;54;20457;-74
2023/03/31 21:02:32;;;;;;;6.10;1.90;;;10.00;99.90;;;;;;2612111;54;20131;-74
2023/03/31 21:08:20;;;;;;;5.70;1.93;;;10.10;99.90;;;;;;2611846;54;20122;-74
2023/03/31 21:11:32;;;;;;;4.50;1.97;;;10.00;99.90;;;;;;2611374;54;20946;-73
2023/03/31 21:13:57;;;;;;;3.30;1.40;;;10.00;99.90;;;;;;2611431;47;20173;-73
2023/03/31 21:19:45;;;;;;;4.13;1.90;;;10.10;99.90;;;;;;2612338;54;20138;-74
2023/03/31 21:25:33;;;;;;;4.10;1.53;;;10.00;99.90;;;;;;2613614;54;20167;-72
2023/03/31 21:31:23;;;;;;;3.00;1.60;;;10.00;99.90;;;;;;2613822;54;20191;-73
2023/03/31 21:37:10;;;;;;;8.97;2.97;;;10.00;99.90;;;;;;2612794;54;20399;-73
2023/03/31 21:42:58;;;;;;;7.90;1.83;;;10.10;99.90;;;;;;2614226;54;20686;-73
2023/03/31 21:48:48;;;;;;;5.47;2.43;;;10.10;99.90;;;;;;2614257;39;20529;-74
2023/03/31 21:54:36;;;;;;;7.90;3.40;;;10.00;99.90;;;;;;2614151;54;20387;-73
2023/03/31 22:00:25;;;;;;;3.63;1.93;;;10.00;99.90;;;;;;2613993;54;20355;-74
2023/03/31 22:06:12;;;;;;;2.97;1.97;;;10.00;99.90;;;;;;2614220;54;20516;-74
2023/03/31 22:16:06;;;;;;;4.80;1.57;;;10.10;99.90;;;;;;2614418;54;20523;-74
2023/03/31 22:21:53;;;;;;;4.60;2.90;;;10.10;99.90;;;;;;2614088;46;20401;-73
2023/03/31 22:27:41;;;;;;;7.03;2.33;;;10.10;99.90;;;;;;2612405;54;20944;-73
2023/03/31 22:33:29;;;;;;;8.13;2.00;;;10.20;99.90;;;;;;2613346;54;20219;-73
2023/03/31 22:39:17;;;;;;;3.83;1.70;;;10.10;99.90;;;;;;2613476;54;20250;-72
2023/03/31 22:45:05;;;;;;;4.10;1.30;;;9.90;99.90;;;;;;2613287;54;20423;-73
2023/03/31 22:50:53;;;;;;;4.90;1.40;;;9.90;99.90;;;;;;2613268;54;20386;-73
2023/03/31 22:56:42;;;;;;;2.20;1.37;;;10.00;99.90;;;;;;2613249;54;20115;-73
2023/03/31 23:02:30;;;;;;;3.70;1.70;;;10.10;99.90;;;;;;2613430;54;20378;-74
2023/03/31 23:08:18;;;;;;;6.23;1.90;;;10.10;99.90;;;;;;2613288;54;20399;-73
2023/03/31 23:11:32;;;;;;;2.60;1.10;;;10.20;99.90;;;;;;2613104;54;20903;-73
2023/03/31 23:13:58;;;;;;;5.87;1.80;;;10.20;99.90;;;;;;2613228;54;20174;-74
2023/03/31 23:19:47;;;;;;;5.80;1.90;;;10.20;99.90;;;;;;2614979;54;20118;-74
2023/03/31 23:25:34;;;;;;;3.77;1.90;;;10.00;99.90;;;;;;2615011;39;20455;-73
2023/03/31 23:31:24;;;;;;;4.80;1.57;;;10.00;99.90;;;;;;2614948;54;20147;-73
2023/03/31 23:37:13;;;;;;;3.87;1.73;;;9.90;99.90;;;;;;2614926;54;20781;-74
2023/03/31 23:43:00;;;;;;;4.13;1.57;;;9.80;99.90;;;;;;2614659;54;20367;-73
2023/03/31 23:48:49;;;;;;;9.80;1.90;;;10.00;99.90;;;;;;2614896;39;20508;-73
2023/03/31 23:54:36;;;;;;;11.33;1.77;;;9.80;99.90;;;;;;2614670;54;20367;-75
